Time,TemperatureF,DewpointF,PressureIn,WindDirection,WindDirectionDegrees,WindSpeedMPH,WindSpeedGustMPH,Humidity,HourlyPrecipIn,Conditions,Clouds,dailyrainin,SoftwareType,DateUTC
2013-03-16 00:21:00,60.6,43.0,30.00,WSW,246,2.0,9.0,53,0.00,,,0.00,weatherlink.com 1.10,2013-03-16 04:21:00,
2013-03-16 00:36:00,60.0,43.0,30.00,NW,318,3.0,6.0,54,0.00,,,0.00,weatherlink.com 1.10,2013-03-16 04:36:00,
2013-03-16 00:51:00,59.6,43.0,30.00,NNW,340,1.0,6.0,55,0.00,,,0.00,weatherlink.com 1.10,2013-03-16 04:51:00,
2013-03-16 01:06:00,59.2,43.0,29.99,ENE,77,2.0,5.0,55,0.00,,,0.00,weatherlink.com 1.10,2013-03-16 05:06:00,
2013-03-16 01:21:00,58.9,43.0,29.99,NNE,14,0.0,9.0,56,0.00,,,0.00,weatherlink.com 1.10,2013-03-16 05:21:00,
2013-03-16 01:36:00,59.1,43.0,29.98,East,91,4.0,4.0,56,0.00,,,0.00,weatherlink.com 1.10,2013-03-16 05:36:00,
2013-03-16 01:52:00,59.4,43.0,29.98,West,278,0.0,9.0,55,0.00,,,0.00,weatherlink.com 1.10,2013-03-16 05:52:00,
2013-03-16 02:06:00,59.4,43.0,29.98,ESE,103,4.0,7.0,54,0.00,,,0.00,weatherlink.com 1.10,2013-03-16 06:06:00,
2013-03-16 02:21:00,59.5,43.0,29.99,South,184,3.0,8.0,54,0.00,,,0.00,weatherlink.com 1.10,2013-03-16 06:21:00,
2013-03-16 02:36:00,59.0,43.0,29.98,SW,228,2.0,9.0,55,0.00,,,0.00,weatherlink.com 1.10,2013-03-16 06:36:00,
2013-03-16 02:51:00,58.9,43.0,29.98,SW,219,2.0,8.0,55,0.00,,,0.00,weatherlink.com 1.10,2013-03-16 06:51:00,
2013-03-16 03:07:00,58.5,43.0,29.98,SE,133,1.0,10.0,56,0.00,,,0.00,weatherlink.com 1.10,2013-03-16 07:07:00,
2013-03-16 03:22:00,58.2,42.0,29.98,SSE,158,1.0,7.0,56,0.00,,,0.00,weatherlink.com 1.10,2013-03-16 07:22:00,
2013-03-16 03:37:00,58.0,43.0,29.98,SE,134,0.0,8.0,57,0.00,,,0.00,weatherlink.com 1.10,2013-03-16 07:37:00,
2013-03-16 03:52:00,57.9,43.0,29.97,NW,312,3.0,6.0,57,0.00,,,0.00,weatherlink.com 1.10,2013-03-16 07:52:00,
2013-03-16 04:07:00,58.0,43.0,29.97,SE,146,1.0,9.0,57,0.00,,,0.00,weatherlink.com 1.10,2013-03-16 08:07:00,
2013-03-16 04:22:00,57.9,43.0,29.96,ESE,116,1.0,8.0,57,0.00,,,0.00,weatherlink.com 1.10,2013-03-16 08:22:00,
2013-03-16 04:37:00,58.0,43.0,29.96,North,1,3.0,10.0,57,0.00,,,0.00,weatherlink.com 1.10,2013-03-16 08:37:00,
2013-03-16 04:52:00,57.8,42.0,29.96,SSE,147,3.0,8.0,57,0.00,,,0.00,weatherlink.com 1.10,2013-03-16 08:52:00,
2013-03-16 05:07:00,57.9,43.0,29.95,South,170,12.0,12.0,57,0.00,,,0.00,weatherlink.com 1.10,2013-03-16 09:07:00,
2013-03-16 05:22:00,57.6,43.0,29.95,SSW,207,1.0,8.0,58,0.00,,,0.00,weatherlink.com 1.10,2013-03-16 09:22:00,
2013-03-16 05:37:00,57.0,43.0,29.95,SE,138,1.0,11.0,59,0.00,,,0.00,weatherlink.com 1.10,2013-03-16 09:37:00,
2013-03-16 05:52:00,56.8,42.0,29.96,SW,224,1.0,7.0,59,0.00,,,0.00,weatherlink.com 1.10,2013-03-16 09:52:00,
2013-03-16 06:07:00,56.6,42.0,29.96,NE,42,0.0,6.0,59,0.00,,,0.00,weatherlink.com 1.10,2013-03-16 10:07:00,
2013-03-16 06:22:00,55.9,42.0,29.97,ESE,108,1.0,7.0,61,0.00,,,0.00,weatherlink.com 1.10,2013-03-16 10:22:00,
2013-03-16 06:52:00,54.8,42.0,29.98,ESE,111,0.0,9.0,63,0.00,,,0.00,weatherlink.com 1.10,2013-03-16 10:52:00,
2013-03-16 07:07:00,53.2,42.0,29.98,NNE,32,1.0,3.0,66,0.00,,,0.00,weatherlink.com 1.10,2013-03-16 11:07:00,
2013-03-16 07:22:00,53.1,42.0,29.99,ESE,122,0.0,4.0,66,0.00,,,0.00,weatherlink.com 1.10,2013-03-16 11:22:00,
2013-03-16 07:37:00,53.0,42.0,29.99,East,95,2.0,3.0,67,0.00,,,0.00,weatherlink.com 1.10,2013-03-16 11:37:00,
2013-03-16 07:52:00,53.1,42.0,29.99,SW,217,0.0,5.0,67,0.00,,,0.00,weatherlink.com 1.10,2013-03-16 11:52:00,
2013-03-16 08:07:00,52.9,42.0,29.99,North,349,1.0,2.0,67,0.00,,,0.00,weatherlink.com 1.10,2013-03-16 12:07:00,
2013-03-16 08:22:00,52.1,42.0,29.98,SE,145,0.0,2.0,69,0.00,,,0.00,weatherlink.com 1.10,2013-03-16 12:22:00,
2013-03-16 08:37:00,52.9,43.0,29.98,SSW,203,1.0,5.0,69,0.00,,,0.00,weatherlink.com 1.10,2013-03-16 12:37:00,
2013-03-16 08:52:00,53.8,43.0,29.99,SE,129,2.0,2.0,67,0.00,,,0.00,weatherlink.com 1.10,2013-03-16 12:52:00,
2013-03-16 09:07:00,54.4,43.0,29.99,SSE,148,2.0,4.0,66,0.00,,,0.00,weatherlink.com 1.10,2013-03-16 13:07:00,
2013-03-16 09:22:00,54.7,43.0,29.98,NE,56,4.0,5.0,66,0.00,,,0.00,weatherlink.com 1.10,2013-03-16 13:22:00,
2013-03-16 09:37:00,55.3,44.0,29.98,NW,309,1.0,5.0,65,0.00,,,0.00,weatherlink.com 1.10,2013-03-16 13:37:00,
2013-03-16 09:52:00,55.9,44.0,29.98,East,95,2.0,7.0,64,0.00,,,0.00,weatherlink.com 1.10,2013-03-16 13:52:00,
2013-03-16 10:07:00,56.5,44.0,29.97,SW,215,2.0,9.0,64,0.00,,,0.00,weatherlink.com 1.10,2013-03-16 14:07:00,
2013-03-16 10:22:00,57.2,45.0,29.97,SSE,153,2.0,8.0,63,0.00,,,0.00,weatherlink.com 1.10,2013-03-16 14:22:00,
2013-03-16 10:37:00,58.2,45.0,29.96,SW,232,1.0,11.0,62,0.00,,,0.00,weatherlink.com 1.10,2013-03-16 14:37:00,
2013-03-16 10:52:00,59.2,46.0,29.96,NNE,26,3.0,8.0,61,0.00,,,0.00,weatherlink.com 1.10,2013-03-16 14:52:00,
2013-03-16 11:07:00,59.9,45.0,29.95,SW,219,2.0,12.0,59,0.00,,,0.00,weatherlink.com 1.10,2013-03-16 15:07:00,
2013-03-16 11:22:00,62.0,46.0,29.95,South,186,2.0,7.0,56,0.00,,,0.00,weatherlink.com 1.10,2013-03-16 15:22:00,
2013-03-16 11:37:00,63.1,45.0,29.94,SSE,156,1.0,8.0,53,0.00,,,0.00,weatherlink.com 1.10,2013-03-16 15:37:00,
2013-03-16 11:53:00,63.8,46.0,29.94,South,172,2.0,12.0,52,0.00,,,0.00,weatherlink.com 1.10,2013-03-16 15:53:00,
2013-03-16 12:08:00,65.4,46.0,29.93,East,98,6.0,7.0,50,0.00,,,0.00,weatherlink.com 1.10,2013-03-16 16:08:00,
2013-03-16 12:23:00,66.0,46.0,29.93,SE,137,4.0,12.0,49,0.00,,,0.00,weatherlink.com 1.10,2013-03-16 16:23:00,
2013-03-16 12:38:00,67.5,47.0,29.93,East,83,1.0,8.0,48,0.00,,,0.00,weatherlink.com 1.10,2013-03-16 16:38:00,
2013-03-16 12:53:00,68.1,47.0,29.92,NW,309,2.0,8.0,47,0.00,,,0.00,weatherlink.com 1.10,2013-03-16 16:53:00,
2013-03-16 13:08:00,69.2,47.0,29.92,SW,229,2.0,7.0,46,0.00,,,0.00,weatherlink.com 1.10,2013-03-16 17:08:00,
2013-03-16 13:23:00,70.7,49.0,29.91,SW,226,3.0,7.0,46,0.00,,,0.00,weatherlink.com 1.10,2013-03-16 17:23:00,
2013-03-16 13:38:00,71.6,48.0,29.90,NE,46,1.0,11.0,43,0.00,,,0.00,weatherlink.com 1.10,2013-03-16 17:38:00,
2013-03-16 13:54:00,72.2,48.0,29.89,SW,224,3.0,10.0,43,0.00,,,0.00,weatherlink.com 1.10,2013-03-16 17:54:00,
2013-03-16 14:08:00,70.4,48.0,29.89,SSE,160,2.0,13.0,45,0.00,,,0.00,weatherlink.com 1.10,2013-03-16 18:08:00,
2013-03-16 14:23:00,71.1,49.0,29.89,ESE,115,7.0,11.0,46,0.00,,,0.00,weatherlink.com 1.10,2013-03-16 18:23:00,
2013-03-16 14:38:00,72.3,49.0,29.88,SSW,204,2.0,8.0,44,0.00,,,0.00,weatherlink.com 1.10,2013-03-16 18:38:00,
2013-03-16 14:53:00,70.7,49.0,29.88,WSW,243,2.0,10.0,46,0.00,,,0.00,weatherlink.com 1.10,2013-03-16 18:53:00,
2013-03-16 15:08:00,70.8,49.0,29.88,SSW,200,7.0,11.0,46,0.00,,,0.00,weatherlink.com 1.10,2013-03-16 19:08:00,
2013-03-16 15:23:00,71.7,49.0,29.87,SSW,211,4.0,14.0,44,0.00,,,0.00,weatherlink.com 1.10,2013-03-16 19:23:00,
2013-03-16 15:38:00,72.5,49.0,29.86,SSE,164,7.0,7.0,44,0.00,,,0.00,weatherlink.com 1.10,2013-03-16 19:38:00,
2013-03-16 15:53:00,72.9,49.0,29.86,SE,133,4.0,4.0,43,0.00,,,0.00,weatherlink.com 1.10,2013-03-16 19:53:00,
2013-03-16 16:08:00,71.0,48.0,29.86,WSW,257,0.0,7.0,44,0.00,,,0.00,weatherlink.com 1.10,2013-03-16 20:08:00,
2013-03-16 16:23:00,70.8,48.0,29.86,SW,217,0.0,7.0,44,0.00,,,0.00,weatherlink.com 1.10,2013-03-16 20:23:00,
2013-03-16 16:38:00,72.2,48.0,29.87,WNW,290,2.0,8.0,42,0.00,,,0.00,weatherlink.com 1.10,2013-03-16 20:38:00,
2013-03-16 16:53:00,72.8,46.0,29.87,SSE,158,2.0,9.0,39,0.00,,,0.00,weatherlink.com 1.10,2013-03-16 20:53:00,
2013-03-16 17:08:00,72.6,47.0,29.86,SSW,205,1.0,9.0,40,0.00,,,0.00,weatherlink.com 1.10,2013-03-16 21:08:00,
2013-03-16 17:23:00,73.3,46.0,29.87,East,91,2.0,6.0,38,0.00,,,0.00,weatherlink.com 1.10,2013-03-16 21:23:00,
2013-03-16 17:38:00,72.6,45.0,29.86,SE,124,0.0,7.0,38,0.00,,,0.00,weatherlink.com 1.10,2013-03-16 21:38:00,
2013-03-16 17:53:00,72.4,46.0,29.86,SW,217,4.0,8.0,39,0.00,,,0.00,weatherlink.com 1.10,2013-03-16 21:53:00,
2013-03-16 18:08:00,71.2,44.0,29.87,SSE,161,3.0,8.0,38,0.00,,,0.00,weatherlink.com 1.10,2013-03-16 22:08:00,
2013-03-16 18:23:00,70.5,45.0,29.87,SE,125,3.0,7.0,40,0.00,,,0.00,weatherlink.com 1.10,2013-03-16 22:23:00,
2013-03-16 18:38:00,69.5,44.0,29.86,West,266,2.0,8.0,40,0.00,,,0.00,weatherlink.com 1.10,2013-03-16 22:38:00,
2013-03-16 18:53:00,68.7,44.0,29.86,SE,143,2.0,9.0,41,0.00,,,0.00,weatherlink.com 1.10,2013-03-16 22:53:00,
2013-03-16 19:09:00,68.1,43.0,29.86,WSW,255,2.0,7.0,41,0.00,,,0.00,weatherlink.com 1.10,2013-03-16 23:09:00,
2013-03-16 19:23:00,67.4,43.0,29.86,SSE,167,5.0,7.0,41,0.00,,,0.00,weatherlink.com 1.10,2013-03-16 23:23:00,
2013-03-16 19:38:00,66.9,43.0,29.88,SSE,155,2.0,6.0,42,0.00,,,0.00,weatherlink.com 1.10,2013-03-16 23:38:00,
2013-03-16 19:53:00,66.2,43.0,29.89,NE,40,0.0,6.0,44,0.00,,,0.00,weatherlink.com 1.10,2013-03-16 23:53:00,
2013-03-16 20:08:00,65.0,43.0,29.90,ENE,57,0.0,2.0,45,0.00,,,0.00,weatherlink.com 1.10,2013-03-17 00:08:00,
2013-03-16 20:23:00,64.3,43.0,29.91,East,79,1.0,4.0,46,0.00,,,0.00,weatherlink.com 1.10,2013-03-17 00:23:00,
2013-03-16 20:38:00,63.2,43.0,29.91,NE,46,0.0,2.0,48,0.00,,,0.00,weatherlink.com 1.10,2013-03-17 00:38:00,
2013-03-16 20:53:00,63.0,43.0,29.92,WSW,238,1.0,3.0,48,0.00,,,0.00,weatherlink.com 1.10,2013-03-17 00:53:00,
2013-03-16 21:08:00,62.3,43.0,29.93,WSW,238,0.0,2.0,50,0.00,,,0.00,weatherlink.com 1.10,2013-03-17 01:08:00,
2013-03-16 21:23:00,61.6,43.0,29.93,WSW,238,0.0,2.0,51,0.00,,,0.00,weatherlink.com 1.10,2013-03-17 01:23:00,
2013-03-16 21:38:00,60.9,43.0,29.93,NW,326,0.0,2.0,52,0.00,,,0.00,weatherlink.com 1.10,2013-03-17 01:38:00,
2013-03-16 21:53:00,60.8,43.0,29.93,ENE,61,1.0,2.0,53,0.00,,,0.00,weatherlink.com 1.10,2013-03-17 01:53:00,
2013-03-16 22:08:00,60.1,43.0,29.94,NNE,30,0.0,1.0,54,0.00,,,0.00,weatherlink.com 1.10,2013-03-17 02:08:00,
2013-03-16 22:23:00,59.5,44.0,29.94,North,352,0.0,0.0,56,0.00,,,0.00,weatherlink.com 1.10,2013-03-17 02:23:00,
2013-03-16 22:38:00,59.3,44.0,29.94,ENE,63,0.0,1.0,57,0.00,,,0.00,weatherlink.com 1.10,2013-03-17 02:38:00,
2013-03-16 22:53:00,59.0,44.0,29.94,ENE,67,0.0,1.0,57,0.00,,,0.00,weatherlink.com 1.10,2013-03-17 02:53:00,
2013-03-16 23:08:00,58.6,44.0,29.95,SE,145,0.0,1.0,58,0.00,,,0.00,weatherlink.com 1.10,2013-03-17 03:08:00,
2013-03-16 23:23:00,58.8,44.0,29.95,SSE,148,0.0,2.0,59,0.00,,,0.00,weatherlink.com 1.10,2013-03-17 03:23:00,
2013-03-16 23:38:00,58.7,44.0,29.95,NNE,21,0.0,1.0,59,0.00,,,0.00,weatherlink.com 1.10,2013-03-17 03:38:00,
2013-03-16 23:54:00,59.2,44.0,29.96,NNW,327,0.0,3.0,58,0.00,,,0.00,weatherlink.com 1.10,2013-03-17 03:54:00,